Fortuna, Missouri
Current Conditions -  °F | °C
As of 6:53 PM on Saturday 22 Nov 2014 (Local Time) from KDMO Reporting Station
Scattered Clouds Scattered Clouds  
Wind Chill: 56°   Ceiling: Unl
Heat Index: 56°   Visibility: 10mi
Dew Point: 51°   Wind: 17mph
Humidity: 84%   Direction: 180°S
Pressure: 29.84"   Gusts: NA
Location:  38.57°N, 92.8°W
Report Text: KDMO 230053Z AUTO 18015KT 10SM SCT015 13/11 A2984 RMK AO2 SLP103 T01330106
Loading
Personal Weather Stations






























Interactive Weather Map New forecast layout! Learn more

10-Day Weather Forecast

Advertisements
Track Severe Weather on mobile